Waiouru, New Zealand
Current Conditions -  °F | °C
As of 8:00 PM on Thursday 29 Jan 2015 (Local Time) from NZWN Reporting Station
Scattered Clouds Scattered Clouds  
Wind Chill: 64°   Ceiling: Unl
Heat Index: 64°   Visibility: 6mi
Dew Point: 61°   Wind: 16mph
Humidity: 88%   Direction: 150°SSE
Pressure: 29.94"   Gusts: NA
Location:  39.48°S, 175.67°E
Report Text: NZWN 290800Z AUTO 15014KT 9999 SCT005 18/16 Q1014 BECMG BKN005
Loading
Personal Weather Stations






























Interactive Weather Map New forecast layout! Learn more

10-Day Weather Forecast

Advertisements
Track Severe Weather on mobile